sensor_id;sensor_type;location;lat;lon;timestamp;pressure;altitude;pressure_sealevel;temperature
41654;BMP280;30790;52.030;7.110;2022-09-27T00:00:31;98722.56;;;20.39
41654;BMP280;30790;52.030;7.110;2022-09-27T00:02:57;98718.31;;;20.33
41654;BMP280;30790;52.030;7.110;2022-09-27T00:05:22;98726.69;;;20.36
41654;BMP280;30790;52.030;7.110;2022-09-27T00:07:48;98728.09;;;20.34
41654;BMP280;30790;52.030;7.110;2022-09-27T00:10:13;98722.13;;;20.32
41654;BMP280;30790;52.030;7.110;2022-09-27T00:12:39;98731.63;;;20.34
41654;BMP280;30790;52.030;7.110;2022-09-27T00:15:05;98731.94;;;20.33
41654;BMP280;30790;52.030;7.110;2022-09-27T00:17:31;98740.69;;;20.30
41654;BMP280;30790;52.030;7.110;2022-09-27T00:20:00;98747.47;;;20.32
41654;BMP280;30790;52.030;7.110;2022-09-27T00:22:25;98745.56;;;20.33
41654;BMP280;30790;52.030;7.110;2022-09-27T00:24:51;98739.88;;;20.29
41654;BMP280;30790;52.030;7.110;2022-09-27T00:27:17;98747.19;;;20.34
41654;BMP280;30790;52.030;7.110;2022-09-27T00:29:44;98750.19;;;20.32
41654;BMP280;30790;52.030;7.110;2022-09-27T00:32:09;98745.91;;;20.26
41654;BMP280;30790;52.030;7.110;2022-09-27T00:34:35;98746.69;;;20.27
41654;BMP280;30790;52.030;7.110;2022-09-27T00:37:00;98739.88;;;20.29
41654;BMP280;30790;52.030;7.110;2022-09-27T00:39:25;98745.63;;;20.28
41654;BMP280;30790;52.030;7.110;2022-09-27T00:41:51;98736.41;;;20.24
41654;BMP280;30790;52.030;7.110;2022-09-27T00:49:39;98754.63;;;20.28
41654;BMP280;30790;52.030;7.110;2022-09-27T00:52:31;98749.44;;;20.27
41654;BMP280;30790;52.030;7.110;2022-09-27T00:55:03;98750.53;;;20.26
41654;BMP280;30790;52.030;7.110;2022-09-27T00:57:31;98753.25;;;20.26
41654;BMP280;30790;52.030;7.110;2022-09-27T01:00:03;98744.88;;;20.22
41654;BMP280;30790;52.030;7.110;2022-09-27T01:02:29;98745.66;;;20.23
41654;BMP280;30790;52.030;7.110;2022-09-27T01:04:56;98748.41;;;20.23
41654;BMP280;30790;52.030;7.110;2022-09-27T01:07:21;98741.84;;;20.24
41654;BMP280;30790;52.030;7.110;2022-09-27T01:09:47;98754.34;;;20.25
41654;BMP280;30790;52.030;7.110;2022-09-27T01:12:22;98756.56;;;20.23
41654;BMP280;30790;52.030;7.110;2022-09-27T01:25:24;98769.09;;;20.24
41654;BMP280;30790;52.030;7.110;2022-09-27T01:31:08;98772.09;;;20.22
41654;BMP280;30790;52.030;7.110;2022-09-27T01:37:23;98770.47;;;20.21
41654;BMP280;30790;52.030;7.110;2022-09-27T01:39:33;98772.41;;;20.21
41654;BMP280;30790;52.030;7.110;2022-09-27T01:42:22;98772.69;;;20.19
41654;BMP280;30790;52.030;7.110;2022-09-27T01:47:22;98776.53;;;20.18
41654;BMP280;30790;52.030;7.110;2022-09-27T01:49:59;98776.53;;;20.18
41654;BMP280;30790;52.030;7.110;2022-09-27T01:52:32;98774.09;;;20.17
41654;BMP280;30790;52.030;7.110;2022-09-27T01:55:03;98774.38;;;20.15
41654;BMP280;30790;52.030;7.110;2022-09-27T01:57:35;98774.38;;;20.15
41654;BMP280;30790;52.030;7.110;2022-09-27T02:00:06;98768.63;;;20.17
41654;BMP280;30790;52.030;7.110;2022-09-27T02:02:36;98760.75;;;20.15
41654;BMP280;30790;52.030;7.110;2022-09-27T02:05:05;98773.06;;;20.13
41654;BMP280;30790;52.030;7.110;2022-09-27T02:07:37;98764.88;;;20.13
41654;BMP280;30790;52.030;7.110;2022-09-27T02:10:09;98769.75;;;20.16
41654;BMP280;30790;52.030;7.110;2022-09-27T02:12:45;98767.59;;;20.13
41654;BMP280;30790;52.030;7.110;2022-09-27T02:15:13;98777.09;;;20.15
41654;BMP280;30790;52.030;7.110;2022-09-27T02:18:00;98775.47;;;20.14
41654;BMP280;30790;52.030;7.110;2022-09-27T02:20:33;98777.09;;;20.15
41654;BMP280;30790;52.030;7.110;2022-09-27T02:23:21;98768.94;;;20.15
41654;BMP280;30790;52.030;7.110;2022-09-27T02:25:56;98775.19;;;20.16
41654;BMP280;30790;52.030;7.110;2022-09-27T02:30:54;98770.31;;;20.13
41654;BMP280;30790;52.030;7.110;2022-09-27T02:33:23;98772.25;;;20.12
41654;BMP280;30790;52.030;7.110;2022-09-27T02:35:51;98778.50;;;20.13
41654;BMP280;30790;52.030;7.110;2022-09-27T02:38:16;98775.25;;;20.11
41654;BMP280;30790;52.030;7.110;2022-09-27T02:40:44;98776.06;;;19.87
41654;BMP280;30790;52.030;7.110;2022-09-27T02:43:12;98774.03;;;19.98
41654;BMP280;30790;52.030;7.110;2022-09-27T02:54:42;98778.56;;;20.08
41654;BMP280;30790;52.030;7.110;2022-09-27T03:00:04;98781.28;;;20.08
41654;BMP280;30790;52.030;7.110;2022-09-27T03:05:16;98785.13;;;20.06
41654;BMP280;30790;52.030;7.110;2022-09-27T03:07:44;98779.16;;;20.04
41654;BMP280;30790;52.030;7.110;2022-09-27T03:10:16;98783.72;;;20.09
41654;BMP280;30790;52.030;7.110;2022-09-27T03:12:42;98771.56;;;20.01
41654;BMP280;30790;52.030;7.110;2022-09-27T03:15:08;98778.84;;;20.06
41654;BMP280;30790;52.030;7.110;2022-09-27T03:17:35;98786.50;;;20.04
41654;BMP280;30790;52.030;7.110;2022-09-27T03:20:00;98785.69;;;20.03
41654;BMP280;30790;52.030;7.110;2022-09-27T03:22:25;98779.66;;;20.06
41654;BMP280;30790;52.030;7.110;2022-09-27T03:24:51;98783.50;;;20.05
41654;BMP280;30790;52.030;7.110;2022-09-27T03:27:17;98781.28;;;20.08
41654;BMP280;30790;52.030;7.110;2022-09-27T03:29:42;98785.13;;;20.06
41654;BMP280;30790;52.030;7.110;2022-09-27T03:32:07;98782.16;;;20.03
41654;BMP280;30790;52.030;7.110;2022-09-27T03:34:32;98786.50;;;20.04
41654;BMP280;30790;52.030;7.110;2022-09-27T03:36:58;98787.84;;;20.06
41654;BMP280;30790;52.030;7.110;2022-09-27T03:39:23;98788.34;;;20.09
41654;BMP280;30790;52.030;7.110;2022-09-27T03:41:48;98794.63;;;20.09
41654;BMP280;30790;52.030;7.110;2022-09-27T03:44:14;98799.47;;;20.12
41654;BMP280;30790;52.030;7.110;2022-09-27T03:46:39;98795.38;;;20.15
41654;BMP280;30790;52.030;7.110;2022-09-27T03:49:05;98788.53;;;20.17
41654;BMP280;30790;52.030;7.110;2022-09-27T03:51:30;98798.81;;;20.20
41654;BMP280;30790;52.030;7.110;2022-09-27T03:53:55;98794.72;;;20.23
41654;BMP280;30790;52.030;7.110;2022-09-27T03:56:21;98798.47;;;20.27
41654;BMP280;30790;52.030;7.110;2022-09-27T03:58:46;98795.75;;;20.27
41654;BMP280;30790;52.030;7.110;2022-09-27T04:01:12;98800.06;;;20.33
41654;BMP280;30790;52.030;7.110;2022-09-27T04:03:38;98807.72;;;20.31
41654;BMP280;30790;52.030;7.110;2022-09-27T04:06:03;98802.78;;;20.33
41654;BMP280;30790;52.030;7.110;2022-09-27T04:08:29;98809.84;;;20.34
41654;BMP280;30790;52.030;7.110;2022-09-27T04:10:55;98803.28;;;20.35
41654;BMP280;30790;52.030;7.110;2022-09-27T04:13:21;98809.78;;;20.39
41654;BMP280;30790;52.030;7.110;2022-09-27T04:15:46;98803.81;;;20.37
41654;BMP280;30790;52.030;7.110;2022-09-27T04:18:12;98804.34;;;20.39
41654;BMP280;30790;52.030;7.110;2022-09-27T04:20:37;98805.13;;;20.40
41654;BMP280;30790;52.030;7.110;2022-09-27T04:23:03;98809.78;;;20.39
41654;BMP280;30790;52.030;7.110;2022-09-27T04:25:28;98822.56;;;20.44
41654;BMP280;30790;52.030;7.110;2022-09-27T04:27:54;98819.31;;;20.42
41654;BMP280;30790;52.030;7.110;2022-09-27T04:30:20;98819.53;;;20.45
41654;BMP280;30790;52.030;7.110;2022-09-27T04:32:47;98823.38;;;20.44
41654;BMP280;30790;52.030;7.110;2022-09-27T04:35:13;98821.44;;;20.45
41654;BMP280;30790;52.030;7.110;2022-09-27T04:37:58;98817.91;;;20.44
41654;BMP280;30790;52.030;7.110;2022-09-27T04:40:24;98818.22;;;20.43
41654;BMP280;30790;52.030;7.110;2022-09-27T04:42:50;98819.53;;;20.45
41654;BMP280;30790;52.030;7.110;2022-09-27T04:45:16;98810.38;;;20.36
41654;BMP280;30790;52.030;7.110;2022-09-27T04:47:46;98814.38;;;20.44
41654;BMP280;30790;52.030;7.110;2022-09-27T04:50:12;98827.72;;;20.45
41654;BMP280;30790;52.030;7.110;2022-09-27T04:52:38;98821.75;;;20.43
41654;BMP280;30790;52.030;7.110;2022-09-27T04:55:05;98831.78;;;20.48
41654;BMP280;30790;52.030;7.110;2022-09-27T04:57:31;98827.72;;;20.45
41654;BMP280;30790;52.030;7.110;2022-09-27T04:59:56;98831.03;;;20.42
41654;BMP280;30790;52.030;7.110;2022-09-27T05:02:25;98834.00;;;20.17
41654;BMP280;30790;52.030;7.110;2022-09-27T05:04:51;98825.25;;;20.20
41654;BMP280;30790;52.030;7.110;2022-09-27T05:07:16;98828.94;;;20.34
41654;BMP280;30790;52.030;7.110;2022-09-27T05:09:42;98832.47;;;20.34
41654;BMP280;30790;52.030;7.110;2022-09-27T05:12:08;98832.97;;;20.36
41654;BMP280;30790;52.030;7.110;2022-09-27T05:14:33;98841.56;;;20.49
41654;BMP280;30790;52.030;7.110;2022-09-27T05:16:58;98845.88;;;20.55
41654;BMP280;30790;52.030;7.110;2022-09-27T05:19:24;98853.09;;;20.64
41654;BMP280;30790;52.030;7.110;2022-09-27T05:21:49;98852.97;;;20.75
41654;BMP280;30790;52.030;7.110;2022-09-27T05:24:15;98839.31;;;20.75
41654;BMP280;30790;52.030;7.110;2022-09-27T05:26:40;98845.00;;;20.78
41654;BMP280;30790;52.030;7.110;2022-09-27T05:29:06;98836.53;;;20.80
41654;BMP280;30790;52.030;7.110;2022-09-27T05:31:31;98847.91;;;20.87
41654;BMP280;30790;52.030;7.110;2022-09-27T05:33:56;98841.56;;;20.91
41654;BMP280;30790;52.030;7.110;2022-09-27T05:36:22;98855.34;;;21.00
41654;BMP280;30790;52.030;7.110;2022-09-27T05:38:47;98856.44;;;20.99
41654;BMP280;30790;52.030;7.110;2022-09-27T05:41:13;98856.06;;;21.06
41654;BMP280;30790;52.030;7.110;2022-09-27T05:43:39;98846.25;;;21.05
41654;BMP280;30790;52.030;7.110;2022-09-27T05:46:05;98853.38;;;20.39
41654;BMP280;30790;52.030;7.110;2022-09-27T05:48:30;98847.72;;;19.54
41654;BMP280;30790;52.030;7.110;2022-09-27T05:50:56;98867.06;;;19.47
41654;BMP280;30790;52.030;7.110;2022-09-27T05:53:21;98858.28;;;19.21
41654;BMP280;30790;52.030;7.110;2022-09-27T05:55:47;98856.94;;;19.13
41654;BMP280;30790;52.030;7.110;2022-09-27T05:58:14;98851.97;;;18.81
41654;BMP280;30790;52.030;7.110;2022-09-27T06:00:40;98868.72;;;19.04
41654;BMP280;30790;52.030;7.110;2022-09-27T06:03:06;98860.75;;;19.52
41654;BMP280;30790;52.030;7.110;2022-09-27T06:05:36;98846.28;;;19.90
41654;BMP280;30790;52.030;7.110;2022-09-27T06:08:04;98859.63;;;20.16
41654;BMP280;30790;52.030;7.110;2022-09-27T06:10:30;98860.81;;;20.33
41654;BMP280;30790;52.030;7.110;2022-09-27T06:13:00;98857.19;;;20.43
41654;BMP280;30790;52.030;7.110;2022-09-27T06:15:27;98867.69;;;20.55
41654;BMP280;30790;52.030;7.110;2022-09-27T06:17:52;98871.38;;;20.64
41654;BMP280;30790;52.030;7.110;2022-09-27T06:20:18;98871.00;;;20.71
41654;BMP280;30790;52.030;7.110;2022-09-27T06:22:43;98868.00;;;20.72
41654;BMP280;30790;52.030;7.110;2022-09-27T06:25:10;98884.50;;;20.81
41654;BMP280;30790;52.030;7.110;2022-09-27T06:27:36;98882.84;;;20.85
41654;BMP280;30790;52.030;7.110;2022-09-27T06:30:03;98870.59;;;20.82
41654;BMP280;30790;52.030;7.110;2022-09-27T06:32:28;98868.91;;;20.86
41654;BMP280;30790;52.030;7.110;2022-09-27T06:34:53;98885.13;;;20.96
41654;BMP280;30790;52.030;7.110;2022-09-27T06:37:19;98886.16;;;21.01
41654;BMP280;30790;52.030;7.110;2022-09-27T06:39:44;98888.88;;;21.01
41654;BMP280;30790;52.030;7.110;2022-09-27T06:42:09;98894.25;;;21.06
41654;BMP280;30790;52.030;7.110;2022-09-27T06:44:35;98890.44;;;21.07
41654;BMP280;30790;52.030;7.110;2022-09-27T06:47:00;98896.13;;;21.10
41654;BMP280;30790;52.030;7.110;2022-09-27T06:49:26;98898.31;;;21.08
41654;BMP280;30790;52.030;7.110;2022-09-27T06:51:52;98912.25;;;21.07
41654;BMP280;30790;52.030;7.110;2022-09-27T06:54:18;98916.91;;;21.06
41654;BMP280;30790;52.030;7.110;2022-09-27T06:56:46;98915.28;;;21.05
41654;BMP280;30790;52.030;7.110;2022-09-27T06:59:12;98921.31;;;21.02
41654;BMP280;30790;52.030;7.110;2022-09-27T07:01:55;98920.50;;;21.02
41654;BMP280;30790;52.030;7.110;2022-09-27T07:04:21;98921.31;;;21.02
41654;BMP280;30790;52.030;7.110;2022-09-27T07:06:47;98928.09;;;21.05
41654;BMP280;30790;52.030;7.110;2022-09-27T07:09:12;98930.59;;;21.01
41654;BMP280;30790;52.030;7.110;2022-09-27T07:11:38;98919.84;;;20.91
41654;BMP280;30790;52.030;7.110;2022-09-27T07:14:04;98926.56;;;20.98
41654;BMP280;30790;52.030;7.110;2022-09-27T07:16:31;98927.38;;;20.99
41654;BMP280;30790;52.030;7.110;2022-09-27T07:18:59;98934.66;;;21.04
41654;BMP280;30790;52.030;7.110;2022-09-27T07:21:24;98939.59;;;21.02
41654;BMP280;30790;52.030;7.110;2022-09-27T07:23:49;98940.19;;;20.98
41654;BMP280;30790;52.030;7.110;2022-09-27T07:26:15;98940.50;;;20.97
41654;BMP280;30790;52.030;7.110;2022-09-27T07:28:40;98951.09;;;20.98
41654;BMP280;30790;52.030;7.110;2022-09-27T07:31:07;98948.75;;;20.92
41654;BMP280;30790;52.030;7.110;2022-09-27T07:33:33;98939.44;;;20.93
41654;BMP280;30790;52.030;7.110;2022-09-27T07:35:58;98947.69;;;20.88
41654;BMP280;30790;52.030;7.110;2022-09-27T07:38:24;98930.41;;;20.74
41654;BMP280;30790;52.030;7.110;2022-09-27T07:40:49;98941.25;;;20.79
41654;BMP280;30790;52.030;7.110;2022-09-27T07:43:15;98942.31;;;20.83
41654;BMP280;30790;52.030;7.110;2022-09-27T07:45:40;98940.41;;;20.83
41654;BMP280;30790;52.030;7.110;2022-09-27T07:48:07;98951.00;;;20.85
41654;BMP280;30790;52.030;7.110;2022-09-27T07:50:33;98953.16;;;20.88
41654;BMP280;30790;52.030;7.110;2022-09-27T07:52:59;98946.00;;;20.92
41654;BMP280;30790;52.030;7.110;2022-09-27T07:55:24;98946.06;;;20.87
41654;BMP280;30790;52.030;7.110;2022-09-27T07:57:50;98960.81;;;20.86
41654;BMP280;30790;52.030;7.110;2022-09-27T08:00:17;98964.06;;;20.88
41654;BMP280;30790;52.030;7.110;2022-09-27T08:02:46;98959.78;;;20.82
41654;BMP280;30790;52.030;7.110;2022-09-27T08:05:12;98963.84;;;20.84
41654;BMP280;30790;52.030;7.110;2022-09-27T08:07:38;98967.38;;;20.85
41654;BMP280;30790;52.030;7.110;2022-09-27T08:10:05;98978.81;;;20.87
41654;BMP280;30790;52.030;7.110;2022-09-27T08:12:31;98973.88;;;20.89
41654;BMP280;30790;52.030;7.110;2022-09-27T08:14:56;98971.16;;;20.89
41654;BMP280;30790;52.030;7.110;2022-09-27T08:17:26;98980.66;;;20.91
41654;BMP280;30790;52.030;7.110;2022-09-27T08:19:51;98979.31;;;20.89
41654;BMP280;30790;52.030;7.110;2022-09-27T08:22:17;98975.78;;;20.88
41654;BMP280;30790;52.030;7.110;2022-09-27T08:24:45;98990.97;;;20.94
41654;BMP280;30790;52.030;7.110;2022-09-27T08:27:11;98987.00;;;20.87
41654;BMP280;30790;52.030;7.110;2022-09-27T08:29:36;98986.47;;;20.85
41654;BMP280;30790;52.030;7.110;2022-09-27T08:32:09;98981.59;;;20.82
41654;BMP280;30790;52.030;7.110;2022-09-27T08:34:34;98991.13;;;20.84
41654;BMP280;30790;52.030;7.110;2022-09-27T08:37:00;98997.38;;;20.85
41654;BMP280;30790;52.030;7.110;2022-09-27T08:39:26;98994.69;;;20.80
41654;BMP280;30790;52.030;7.110;2022-09-27T08:41:59;99002.34;;;20.78
41654;BMP280;30790;52.030;7.110;2022-09-27T08:44:42;98998.00;;;20.77
41654;BMP280;30790;52.030;7.110;2022-09-27T08:47:17;98996.88;;;20.78
41654;BMP280;30790;52.030;7.110;2022-09-27T08:49:56;98993.88;;;20.79
41654;BMP280;30790;52.030;7.110;2022-09-27T08:52:33;99000.94;;;20.80
41654;BMP280;30790;52.030;7.110;2022-09-27T08:55:05;99000.94;;;20.80
41654;BMP280;30790;52.030;7.110;2022-09-27T08:57:39;99007.22;;;20.81
41654;BMP280;30790;52.030;7.110;2022-09-27T09:00:09;99000.94;;;20.80
41654;BMP280;30790;52.030;7.110;2022-09-27T09:02:36;98999.91;;;20.76
41654;BMP280;30790;52.030;7.110;2022-09-27T09:05:11;98997.69;;;20.78
41654;BMP280;30790;52.030;7.110;2022-09-27T09:10:41;99006.16;;;20.77
41654;BMP280;30790;52.030;7.110;2022-09-27T09:16:46;98998.56;;;20.74
41654;BMP280;30790;52.030;7.110;2022-09-27T09:19:42;99006.75;;;20.74
41654;BMP280;30790;52.030;7.110;2022-09-27T09:22:48;99005.94;;;20.73
41654;BMP280;30790;52.030;7.110;2022-09-27T09:25:22;99004.84;;;20.74
41654;BMP280;30790;52.030;7.110;2022-09-27T09:28:03;99006.47;;;20.75
41654;BMP280;30790;52.030;7.110;2022-09-27T09:33:27;99006.75;;;20.74
41654;BMP280;30790;52.030;7.110;2022-09-27T09:40:59;98998.88;;;20.72
41654;BMP280;30790;52.030;7.110;2022-09-27T09:43:44;99003.28;;;20.68
41654;BMP280;30790;52.030;7.110;2022-09-27T09:46:20;99002.19;;;20.69
41654;BMP280;30790;52.030;7.110;2022-09-27T09:51:38;98993.69;;;20.71
41654;BMP280;30790;52.030;7.110;2022-09-27T09:54:15;98989.34;;;20.70
41654;BMP280;30790;52.030;7.110;2022-09-27T09:56:56;98984.47;;;20.66
41654;BMP280;30790;52.030;7.110;2022-09-27T10:00:02;98992.03;;;20.75
41654;BMP280;30790;52.030;7.110;2022-09-27T10:02:32;98996.06;;;20.77
41654;BMP280;30790;52.030;7.110;2022-09-27T10:05:00;98986.03;;;20.73
41654;BMP280;30790;52.030;7.110;2022-09-27T10:07:27;98977.88;;;20.73
41654;BMP280;30790;52.030;7.110;2022-09-27T10:09:55;98986.56;;;20.75
41654;BMP280;30790;52.030;7.110;2022-09-27T10:12:21;98982.72;;;20.76
41654;BMP280;30790;52.030;7.110;2022-09-27T10:14:48;98984.06;;;20.78
41654;BMP280;30790;52.030;7.110;2022-09-27T10:17:21;98978.59;;;20.83
41654;BMP280;30790;52.030;7.110;2022-09-27T10:19:48;98991.91;;;20.85
41654;BMP280;30790;52.030;7.110;2022-09-27T10:22:18;98977.94;;;20.91
41654;BMP280;30790;52.030;7.110;2022-09-27T10:25:01;98977.94;;;20.91
41654;BMP280;30790;52.030;7.110;2022-09-27T10:27:36;98977.13;;;20.91
41654;BMP280;30790;52.030;7.110;2022-09-27T10:30:03;98968.94;;;20.91
41654;BMP280;30790;52.030;7.110;2022-09-27T10:32:33;98968.72;;;20.87
41654;BMP280;30790;52.030;7.110;2022-09-27T10:38:23;98974.50;;;20.81
41654;BMP280;30790;52.030;7.110;2022-09-27T10:40:52;98978.91;;;20.77
41654;BMP280;30790;52.030;7.110;2022-09-27T10:43:32;98970.72;;;20.77
41654;BMP280;30790;52.030;7.110;2022-09-27T10:48:46;98960.09;;;20.75
41654;BMP280;30790;52.030;7.110;2022-09-27T10:51:28;98962.53;;;20.77
41654;BMP280;30790;52.030;7.110;2022-09-27T10:53:56;98964.75;;;20.75
41654;BMP280;30790;52.030;7.110;2022-09-27T10:56:32;98970.72;;;20.77
41654;BMP280;30790;52.030;7.110;2022-09-27T10:58:58;98966.38;;;20.76
41654;BMP280;30790;52.030;7.110;2022-09-27T11:01:38;98966.66;;;20.74
41654;BMP280;30790;52.030;7.110;2022-09-27T11:04:05;98965.78;;;20.79
41654;BMP280;30790;52.030;7.110;2022-09-27T11:06:32;98971.25;;;20.79
41654;BMP280;30790;52.030;7.110;2022-09-27T11:09:28;98978.09;;;20.76
41654;BMP280;30790;52.030;7.110;2022-09-27T11:12:07;98984.06;;;20.78
41654;BMP280;30790;52.030;7.110;2022-09-27T11:14:34;98976.47;;;20.75
41654;BMP280;30790;52.030;7.110;2022-09-27T11:20:14;98979.19;;;20.75
41654;BMP280;30790;52.030;7.110;2022-09-27T11:25:45;98984.34;;;20.77
41654;BMP280;30790;52.030;7.110;2022-09-27T11:28:29;98973.44;;;20.77
41654;BMP280;30790;52.030;7.110;2022-09-27T11:34:13;98978.09;;;20.76
41654;BMP280;30790;52.030;7.110;2022-09-27T11:42:23;98991.72;;;20.76
41654;BMP280;30790;52.030;7.110;2022-09-27T11:45:01;98978.09;;;20.76
41654;BMP280;30790;52.030;7.110;2022-09-27T11:47:37;98978.97;;;20.72
41654;BMP280;30790;52.030;7.110;2022-09-27T11:50:19;98984.41;;;20.72
41654;BMP280;30790;52.030;7.110;2022-09-27T11:59:30;98980.06;;;20.71
41654;BMP280;30790;52.030;7.110;2022-09-27T12:07:48;98978.69;;;20.73
41654;BMP280;30790;52.030;7.110;2022-09-27T12:10:18;98980.06;;;20.71
41654;BMP280;30790;52.030;7.110;2022-09-27T12:12:50;98975.72;;;20.70
41654;BMP280;30790;52.030;7.110;2022-09-27T12:15:20;98971.59;;;20.72
41654;BMP280;30790;52.030;7.110;2022-09-27T12:17:53;98967.53;;;20.70
41654;BMP280;30790;52.030;7.110;2022-09-27T12:20:24;98983.59;;;20.71
41654;BMP280;30790;52.030;7.110;2022-09-27T12:23:02;98986.34;;;20.71
41654;BMP280;30790;52.030;7.110;2022-09-27T12:25:33;98996.44;;;20.71
41654;BMP280;30790;52.030;7.110;2022-09-27T12:28:28;98993.19;;;20.68
41654;BMP280;30790;52.030;7.110;2022-09-27T12:30:54;98989.13;;;20.66
41654;BMP280;30790;52.030;7.110;2022-09-27T12:33:27;98997.00;;;20.67
41654;BMP280;30790;52.030;7.110;2022-09-27T12:35:56;98983.16;;;20.64
41654;BMP280;30790;52.030;7.110;2022-09-27T12:40:57;98993.75;;;20.65
41654;BMP280;30790;52.030;7.110;2022-09-27T12:43:28;98984.03;;;20.59
41654;BMP280;30790;52.030;7.110;2022-09-27T12:46:21;98987.78;;;20.63
41654;BMP280;30790;52.030;7.110;2022-09-27T12:48:59;98994.06;;;20.64
41654;BMP280;30790;52.030;7.110;2022-09-27T12:51:40;98987.28;;;20.61
41654;BMP280;30790;52.030;7.110;2022-09-27T12:56:52;98990.81;;;20.62
41654;BMP280;30790;52.030;7.110;2022-09-27T13:02:12;98989.41;;;20.64
41654;BMP280;30790;52.030;7.110;2022-09-27T13:07:34;98990.53;;;20.63
41654;BMP280;30790;52.030;7.110;2022-09-27T13:13:11;98990.81;;;20.62
41654;BMP280;30790;52.030;7.110;2022-09-27T13:15:38;98992.72;;;20.61
41654;BMP280;30790;52.030;7.110;2022-09-27T13:18:16;98978.06;;;20.57
41654;BMP280;30790;52.030;7.110;2022-09-27T13:20:51;98978.56;;;20.59
41654;BMP280;30790;52.030;7.110;2022-09-27T13:30:52;98991.09;;;20.60
41654;BMP280;30790;52.030;7.110;2022-09-27T13:38:51;98989.81;;;20.77
41654;BMP280;30790;52.030;7.110;2022-09-27T13:41:19;98984.25;;;20.87
41654;BMP280;30790;52.030;7.110;2022-09-27T13:46:16;98995.09;;;20.92
41654;BMP280;30790;52.030;7.110;2022-09-27T13:49:04;98983.59;;;20.95
41654;BMP280;30790;52.030;7.110;2022-09-27T13:51:49;98986.28;;;21.00
41654;BMP280;30790;52.030;7.110;2022-09-27T13:57:00;98990.81;;;21.10
41654;BMP280;30790;52.030;7.110;2022-09-27T13:59:53;98984.47;;;21.14
41654;BMP280;30790;52.030;7.110;2022-09-27T14:02:40;98989.34;;;21.17
41654;BMP280;30790;52.030;7.110;2022-09-27T14:05:11;98982.19;;;21.21
41654;BMP280;30790;52.030;7.110;2022-09-27T14:07:42;98991.47;;;21.20
41654;BMP280;30790;52.030;7.110;2022-09-27T14:10:13;98987.13;;;21.19
41654;BMP280;30790;52.030;7.110;2022-09-27T14:12:40;98991.19;;;21.22
41654;BMP280;30790;52.030;7.110;2022-09-27T14:15:08;98988.75;;;21.20
41654;BMP280;30790;52.030;7.110;2022-09-27T14:17:41;98988.22;;;21.18
41654;BMP280;30790;52.030;7.110;2022-09-27T14:22:56;98984.00;;;21.07
41654;BMP280;30790;52.030;7.110;2022-09-27T14:25:21;98980.72;;;21.10
41654;BMP280;30790;52.030;7.110;2022-09-27T14:27:46;98980.75;;;21.05
41654;BMP280;30790;52.030;7.110;2022-09-27T14:30:20;98981.25;;;21.07
41654;BMP280;30790;52.030;7.110;2022-09-27T14:32:48;98983.19;;;21.07
41654;BMP280;30790;52.030;7.110;2022-09-27T14:38:01;98985.56;;;21.13
41654;BMP280;30790;52.030;7.110;2022-09-27T14:40:27;98992.13;;;21.12
41654;BMP280;30790;52.030;7.110;2022-09-27T14:42:54;98988.88;;;21.10
41654;BMP280;30790;52.030;7.110;2022-09-27T14:45:26;98989.94;;;21.14
41654;BMP280;30790;52.030;7.110;2022-09-27T14:47:53;98993.81;;;21.08
41654;BMP280;30790;52.030;7.110;2022-09-27T14:50:22;98989.41;;;21.12
41654;BMP280;30790;52.030;7.110;2022-09-27T14:52:48;98985.63;;;21.08
41654;BMP280;30790;52.030;7.110;2022-09-27T14:55:20;98999.00;;;21.10
41654;BMP280;30790;52.030;7.110;2022-09-27T14:57:52;98994.91;;;21.07
41654;BMP280;30790;52.030;7.110;2022-09-27T15:00:22;98998.75;;;21.06
41654;BMP280;30790;52.030;7.110;2022-09-27T15:02:49;99001.53;;;21.01
41654;BMP280;30790;52.030;7.110;2022-09-27T15:05:23;98999.09;;;20.99
41654;BMP280;30790;52.030;7.110;2022-09-27T15:07:49;98990.47;;;20.92
41654;BMP280;30790;52.030;7.110;2022-09-27T15:10:21;98996.78;;;20.88
41654;BMP280;30790;52.030;7.110;2022-09-27T15:12:49;98993.84;;;20.84
41654;BMP280;30790;52.030;7.110;2022-09-27T15:15:21;98995.97;;;20.87
41654;BMP280;30790;52.030;7.110;2022-09-27T15:17:48;98982.94;;;20.84
41654;BMP280;30790;52.030;7.110;2022-09-27T15:20:24;99002.53;;;20.86
41654;BMP280;30790;52.030;7.110;2022-09-27T15:22:51;98989.72;;;20.87
41654;BMP280;30790;52.030;7.110;2022-09-27T15:25:21;98987.50;;;20.89
41654;BMP280;30790;52.030;7.110;2022-09-27T15:27:51;98991.03;;;20.89
41654;BMP280;30790;52.030;7.110;2022-09-27T15:30:20;98981.00;;;20.85
41654;BMP280;30790;52.030;7.110;2022-09-27T15:32:50;98997.53;;;20.93
41654;BMP280;30790;52.030;7.110;2022-09-27T15:35:21;98997.75;;;20.97
41654;BMP280;30790;52.030;7.110;2022-09-27T15:37:48;98986.91;;;20.92
41654;BMP280;30790;52.030;7.110;2022-09-27T15:42:57;98995.63;;;20.94
41654;BMP280;30790;52.030;7.110;2022-09-27T15:45:33;98987.44;;;20.94
41654;BMP280;30790;52.030;7.110;2022-09-27T15:48:12;98997.19;;;21.00
41654;BMP280;30790;52.030;7.110;2022-09-27T15:50:39;98997.19;;;21.00
41654;BMP280;30790;52.030;7.110;2022-09-27T15:53:06;98995.84;;;20.97
41654;BMP280;30790;52.030;7.110;2022-09-27T15:55:33;99006.47;;;20.99
41654;BMP280;30790;52.030;7.110;2022-09-27T15:58:04;99008.69;;;20.97
41654;BMP280;30790;52.030;7.110;2022-09-27T16:00:32;99008.16;;;20.95
41654;BMP280;30790;52.030;7.110;2022-09-27T16:02:58;98997.84;;;20.92
41654;BMP280;30790;52.030;7.110;2022-09-27T16:05:24;99005.13;;;20.96
41654;BMP280;30790;52.030;7.110;2022-09-27T16:07:51;99009.50;;;20.97
41654;BMP280;30790;52.030;7.110;2022-09-27T16:10:21;99015.47;;;20.99
41654;BMP280;30790;52.030;7.110;2022-09-27T16:12:48;99009.78;;;20.96
41654;BMP280;30790;52.030;7.110;2022-09-27T16:15:15;99018.47;;;20.98
41654;BMP280;30790;52.030;7.110;2022-09-27T16:17:41;99007.06;;;20.96
41654;BMP280;30790;52.030;7.110;2022-09-27T16:20:17;98992.38;;;20.92
41654;BMP280;30790;52.030;7.110;2022-09-27T16:22:43;98993.47;;;20.91
41654;BMP280;30790;52.030;7.110;2022-09-27T16:25:09;99013.38;;;20.91
41654;BMP280;30790;52.030;7.110;2022-09-27T16:27:34;99011.19;;;20.93
41654;BMP280;30790;52.030;7.110;2022-09-27T16:29:59;98996.59;;;20.79
41654;BMP280;30790;52.030;7.110;2022-09-27T16:32:25;99013.44;;;20.86
41654;BMP280;30790;52.030;7.110;2022-09-27T16:34:50;99009.91;;;20.86